TimeCDT,TemperatureF,Dew PointF,Humidity,Sea Level PressureIn,VisibilityMPH,Wind Direction,Wind SpeedMPH,Gust SpeedMPH,PrecipitationIn,Events,Conditions,WindDirDegrees,DateUTC
12:15 AM,54.0,54.0,100,29.81,0.8,Calm,Calm,-,N/A,,Overcast,0,2013-05-29 05:15:00
12:35 AM,54.0,54.0,100,29.81,0.8,Calm,Calm,-,N/A,,Overcast,0,2013-05-29 05:35:00
12:55 AM,54.0,54.0,100,29.81,0.5,Calm,Calm,-,N/A,Fog,Fog,0,2013-05-29 05:55:00
1:15 AM,54.0,54.0,100,29.80,0.5,Calm,Calm,-,N/A,Fog,Fog,0,2013-05-29 06:15:00
1:35 AM,54.0,54.0,100,29.81,0.5,Calm,Calm,-,N/A,Fog,Fog,0,2013-05-29 06:35:00
1:55 AM,54.0,54.0,100,29.81,0.8,Calm,Calm,-,N/A,,Overcast,0,2013-05-29 06:55:00
2:15 AM,54.0,54.0,100,29.82,0.8,Calm,Calm,-,N/A,,Overcast,0,2013-05-29 07:15:00
2:35 AM,54.1,54.1,100,29.82,0.8,Calm,Calm,-,N/A,,Overcast,0,2013-05-29 07:35:00
2:55 AM,54.1,54.1,100,29.81,0.5,Calm,Calm,-,N/A,Fog,Fog,0,2013-05-29 07:55:00
3:15 AM,54.5,54.5,100,29.81,0.5,Calm,Calm,-,N/A,Fog,Fog,0,2013-05-29 08:15:00
3:35 AM,54.5,54.5,100,29.81,0.5,Calm,Calm,-,N/A,Fog,Fog,0,2013-05-29 08:35:00
3:55 AM,54.7,54.7,100,29.81,0.5,Calm,Calm,-,N/A,Fog,Fog,0,2013-05-29 08:55:00
4:15 AM,55.2,55.2,100,29.82,0.5,Calm,Calm,-,N/A,Fog,Fog,0,2013-05-29 09:15:00
4:35 AM,55.2,55.2,100,29.81,1.2,Calm,Calm,-,N/A,,Overcast,0,2013-05-29 09:35:00
4:55 AM,55.0,55.0,100,29.82,1.0,Calm,Calm,-,N/A,,Overcast,0,2013-05-29 09:55:00
5:15 AM,54.1,54.1,100,29.82,0.2,Calm,Calm,-,N/A,Fog,Fog,0,2013-05-29 10:15:00
5:35 AM,53.6,53.6,100,29.83,0.2,Calm,Calm,-,N/A,Fog,Fog,0,2013-05-29 10:35:00
5:55 AM,54.7,54.7,100,29.85,0.5,Calm,Calm,-,N/A,Fog,Fog,0,2013-05-29 10:55:00
6:15 AM,55.4,55.4,100,29.86,0.2,Calm,Calm,-,N/A,Fog,Fog,0,2013-05-29 11:15:00
6:35 AM,55.9,55.9,100,29.87,0.8,SSW,5.8,-,N/A,,Overcast,200,2013-05-29 11:35:00
6:55 AM,56.5,56.5,100,29.86,1.8,SW,3.5,-,N/A,,Overcast,230,2013-05-29 11:55:00
7:15 AM,56.8,56.8,100,29.87,2.0,SW,3.5,-,N/A,,Overcast,220,2013-05-29 12:15:00
7:35 AM,57.2,57.0,99,29.88,1.8,SSW,5.8,-,N/A,,Overcast,200,2013-05-29 12:35:00
7:55 AM,57.4,57.2,99,29.86,1.8,Calm,Calm,-,N/A,,Overcast,0,2013-05-29 12:55:00
8:15 AM,57.9,57.4,98,29.86,3.0,Calm,Calm,-,N/A,,Overcast,0,2013-05-29 13:15:00
8:35 AM,58.6,57.7,97,29.87,4.0,SSW,3.5,-,N/A,,Overcast,200,2013-05-29 13:35:00
8:55 AM,59.2,57.6,94,29.87,4.0,SSW,4.6,-,N/A,,Overcast,210,2013-05-29 13:55:00
9:15 AM,59.4,57.7,94,29.87,5.0,Calm,Calm,-,N/A,,Overcast,0,2013-05-29 14:15:00
9:35 AM,60.1,58.5,94,29.88,5.0,SSW,5.8,-,N/A,,Overcast,200,2013-05-29 14:35:00
9:55 AM,60.6,58.6,93,29.87,5.0,South,5.8,-,N/A,,Overcast,180,2013-05-29 14:55:00
10:15 AM,60.8,59.2,94,29.88,5.0,South,9.2,-,N/A,,Overcast,180,2013-05-29 15:15:00
10:35 AM,62.6,59.7,90,29.88,7.0,South,4.6,-,N/A,,Overcast,190,2013-05-29 15:35:00
10:55 AM,63.7,59.9,87,29.88,7.0,WSW,3.5,-,N/A,,Overcast,240,2013-05-29 15:55:00
11:15 AM,65.1,60.3,84,29.88,10.0,Calm,Calm,-,N/A,,Overcast,0,2013-05-29 16:15:00
11:35 AM,66.9,60.6,80,29.88,10.0,Calm,Calm,-,N/A,,Overcast,0,2013-05-29 16:35:00
11:55 AM,67.6,60.8,79,29.88,10.0,Calm,Calm,-,N/A,,Overcast,0,2013-05-29 16:55:00
12:15 PM,69.6,61.5,75,29.88,10.0,Calm,Calm,-,N/A,,Mostly Cloudy,0,2013-05-29 17:15:00
12:35 PM,71.8,61.7,70,29.87,10.0,SW,9.2,-,N/A,,Scattered Clouds,220,2013-05-29 17:35:00
12:55 PM,73.4,62.4,68,29.86,10.0,SSE,5.8,-,N/A,,Mostly Cloudy,150,2013-05-29 17:55:00
1:15 PM,75.9,62.8,64,29.86,10.0,South,9.2,-,N/A,,Mostly Cloudy,180,2013-05-29 18:15:00
1:35 PM,76.6,62.6,62,29.86,10.0,South,6.9,-,N/A,,Scattered Clouds,190,2013-05-29 18:35:00
1:55 PM,76.5,61.2,59,29.86,10.0,South,5.8,-,N/A,,Scattered Clouds,170,2013-05-29 18:55:00
2:15 PM,77.4,60.8,57,29.86,10.0,South,9.2,-,N/A,,Clear,190,2013-05-29 19:15:00
2:35 PM,77.7,61.2,57,29.86,10.0,SE,9.2,-,N/A,,Clear,140,2013-05-29 19:35:00
2:55 PM,78.8,60.8,54,29.85,10.0,South,6.9,-,N/A,,Scattered Clouds,170,2013-05-29 19:55:00
3:15 PM,78.8,60.3,53,29.84,10.0,South,6.9,-,N/A,,Scattered Clouds,180,2013-05-29 20:15:00
3:55 PM,81.0,57.7,45,29.83,10.0,SSE,12.7,17.3,N/A,,Scattered Clouds,150,2013-05-29 20:55:00
4:15 PM,81.7,58.1,44,29.82,10.0,South,9.2,-,N/A,,Clear,170,2013-05-29 21:15:00
4:35 PM,81.5,58.3,45,29.80,10.0,SE,9.2,18.4,N/A,,Clear,130,2013-05-29 21:35:00
4:55 PM,82.0,58.3,44,29.80,10.0,SE,10.4,-,N/A,,Clear,130,2013-05-29 21:55:00
5:15 PM,80.6,59.0,48,29.80,10.0,SSE,10.4,16.1,N/A,,Scattered Clouds,160,2013-05-29 22:15:00
5:35 PM,79.5,58.5,48,29.80,10.0,SE,10.4,-,N/A,,Scattered Clouds,140,2013-05-29 22:35:00
6:17 PM,78.8,60.8,54,29.81,10.0,South,9.2,17.3,N/A,,Mostly Cloudy,170,2013-05-29 23:17:00
6:35 PM,76.8,59.4,55,29.81,10.0,South,10.4,17.3,N/A,,Overcast,170,2013-05-29 23:35:00
6:55 PM,75.4,59.0,57,29.83,10.0,WNW,12.7,20.7,N/A,,Overcast,290,2013-05-29 23:55:00
7:15 PM,64.8,58.6,81,29.86,10.0,West,12.7,24.2,N/A,Rain,Light Rain,280,2013-05-30 00:15:00
7:35 PM,63.5,59.5,87,29.86,10.0,West,10.4,-,N/A,Rain-Thunderstorm,Light Thunderstorms and Rain,270,2013-05-30 00:35:00
7:55 PM,62.1,60.1,93,29.85,10.0,NNW,5.8,-,N/A,Rain-Thunderstorm,Light Thunderstorms and Rain,330,2013-05-30 00:55:00
8:15 PM,62.1,59.5,91,29.82,10.0,North,15.0,-,N/A,Rain,Light Rain,360,2013-05-30 01:15:00
8:35 PM,61.7,59.9,94,29.91,3.0,WSW,12.7,-,0.16,Rain-Thunderstorm,Heavy Thunderstorms and Rain,250,2013-05-30 01:35:00
8:55 PM,60.8,59.9,97,29.89,3.0,WNW,4.6,-,0.54,Rain-Thunderstorm,Heavy Thunderstorms and Rain,300,2013-05-30 01:55:00
9:15 PM,61.2,59.9,96,29.89,4.0,Calm,Calm,-,0.06,Rain,Heavy Rain,0,2013-05-30 02:15:00
9:35 PM,60.8,59.9,97,29.88,7.0,Calm,Calm,-,0.10,Rain-Thunderstorm,Thunderstorms and Rain,0,2013-05-30 02:35:00
9:55 PM,60.8,60.1,97,29.86,10.0,WSW,3.5,-,0.12,Rain,Light Rain,240,2013-05-30 02:55:00
10:15 PM,61.2,60.1,96,29.84,10.0,Calm,Calm,-,N/A,Rain,Light Rain,0,2013-05-30 03:15:00
10:35 PM,61.0,60.1,97,29.85,10.0,Calm,Calm,-,N/A,,Scattered Clouds,0,2013-05-30 03:35:00
10:55 PM,60.4,59.9,98,29.86,10.0,South,3.5,-,N/A,,Mostly Cloudy,170,2013-05-30 03:55:00
11:15 PM,60.4,60.1,99,29.85,10.0,SE,3.5,-,N/A,,Light Drizzle,130,2013-05-30 04:15:00
11:35 PM,60.8,60.4,99,29.85,10.0,ESE,5.8,-,N/A,Rain,Rain,120,2013-05-30 04:35:00
11:55 PM,60.8,60.4,99,29.86,10.0,SSE,6.9,-,N/A,Rain,Light Rain,150,2013-05-30 04:55:00